Terminal Aerodrome Forecast
Issued by NWS

Current Version | Previous Version | Graphics & Text | Print | Product List | Glossary On
Versions: 1 2 3 4 5 6 7 8 9 10 11 12 13 14 15 16 17 18 19 20 21 22 23 24 25 26 27 28 29 30
000
FTUS41 KILN 291400 AAA
TAFLUK
TAF AMD
KLUK 291458Z 2915/3012 20012G18KT P6SM OVC080
     FM291600 22014G24KT P6SM BKN025 OVC150
     FM292000 27015G25KT P6SM OVC015
     FM300200 29012KT P6SM OVC018
     FM300800 30011KT P6SM OVC025=

USA.gov is the U.S. government's official web portal to all federal, state and local government web resources and services.